sensor_id;sensor_type;location;lat;lon;timestamp;pressure;altitude;pressure_sealevel;temperature;humidity
16431;BME280;8325;49.284;7.238;2023-01-28T05:00:57;99593.59;;;1.28;100.00
16431;BME280;8325;49.284;7.238;2023-01-28T05:05:09;99588.28;;;1.31;100.00
16431;BME280;8325;49.284;7.238;2023-01-28T05:09:31;99593.03;;;1.23;100.00
16431;BME280;8325;49.284;7.238;2023-01-28T05:13:44;99596.34;;;1.25;100.00
16431;BME280;8325;49.284;7.238;2023-01-28T05:17:57;99593.72;;;1.26;100.00
16431;BME280;8325;49.284;7.238;2023-01-28T05:22:13;99593.97;;;1.22;100.00
16431;BME280;8325;49.284;7.238;2023-01-28T05:26:27;99604.09;;;1.25;100.00
16431;BME280;8325;49.284;7.238;2023-01-28T05:30:39;99609.34;;;1.23;100.00
16431;BME280;8325;49.284;7.238;2023-01-28T05:34:50;99608.84;;;1.17;100.00
16431;BME280;8325;49.284;7.238;2023-01-28T05:39:02;99610.97;;;1.24;100.00
16431;BME280;8325;49.284;7.238;2023-01-28T05:43:14;99609.97;;;1.27;100.00
16431;BME280;8325;49.284;7.238;2023-01-28T05:47:35;99622.28;;;1.22;100.00
16431;BME280;8325;49.284;7.238;2023-01-28T05:52:08;99627.72;;;1.31;100.00
16431;BME280;8325;49.284;7.238;2023-01-28T05:56:20;99624.22;;;1.32;100.00
16431;BME280;8325;49.284;7.238;2023-01-28T06:00:31;99628.34;;;1.35;100.00
16431;BME280;8325;49.284;7.238;2023-01-28T06:04:45;99630.56;;;1.27;100.00
16431;BME280;8325;49.284;7.238;2023-01-28T06:08:56;99640.69;;;1.30;100.00
16431;BME280;8325;49.284;7.238;2023-01-28T06:13:11;99634.03;;;1.26;100.00
16431;BME280;8325;49.284;7.238;2023-01-28T06:17:41;99640.88;;;1.27;100.00
16431;BME280;8325;49.284;7.238;2023-01-28T06:22:05;99646.38;;;1.21;100.00
16431;BME280;8325;49.284;7.238;2023-01-28T06:26:17;99649.75;;;1.21;100.00
16431;BME280;8325;49.284;7.238;2023-01-28T06:30:30;99650.88;;;1.17;100.00
16431;BME280;8325;49.284;7.238;2023-01-28T06:34:41;99659.94;;;1.23;100.00
16431;BME280;8325;49.284;7.238;2023-01-28T06:38:53;99671.13;;;1.07;100.00
16431;BME280;8325;49.284;7.238;2023-01-28T06:43:05;99673.63;;;1.09;99.97
16431;BME280;8325;49.284;7.238;2023-01-28T06:47:16;99681.22;;;1.10;99.54
16431;BME280;8325;49.284;7.238;2023-01-28T06:51:29;99686.56;;;1.07;99.54
16431;BME280;8325;49.284;7.238;2023-01-28T06:55:40;99689.88;;;1.09;100.00
16431;BME280;8325;49.284;7.238;2023-01-28T06:59:52;99693.38;;;1.08;99.37
16431;BME280;8325;49.284;7.238;2023-01-28T07:04:03;99687.66;;;1.03;98.75
16431;BME280;8325;49.284;7.238;2023-01-28T07:08:15;99687.31;;;1.09;97.69
16431;BME280;8325;49.284;7.238;2023-01-28T07:12:26;99698.69;;;1.05;98.24
16431;BME280;8325;49.284;7.238;2023-01-28T07:16:38;99703.56;;;1.10;97.53
16431;BME280;8325;49.284;7.238;2023-01-28T07:20:49;99699.53;;;1.06;98.04
16431;BME280;8325;49.284;7.238;2023-01-28T07:25:01;99690.38;;;1.16;98.24
16431;BME280;8325;49.284;7.238;2023-01-28T07:29:12;99696.44;;;1.15;97.63
16431;BME280;8325;49.284;7.238;2023-01-28T07:33:24;99692.69;;;1.21;98.48
16431;BME280;8325;49.284;7.238;2023-01-28T07:37:35;99692.28;;;1.43;98.70
16431;BME280;8325;49.284;7.238;2023-01-28T07:41:47;99703.28;;;1.30;98.07
16431;BME280;8325;49.284;7.238;2023-01-28T07:46:15;99707.97;;;1.24;96.49
16431;BME280;8325;49.284;7.238;2023-01-28T07:50:27;99712.03;;;1.12;96.55
16431;BME280;8325;49.284;7.238;2023-01-28T07:54:39;99721.34;;;1.14;95.94
16431;BME280;8325;49.284;7.238;2023-01-28T07:58:51;99721.91;;;1.20;96.28
16431;BME280;8325;49.284;7.238;2023-01-28T08:03:04;99719.84;;;1.10;97.02
16431;BME280;8325;49.284;7.238;2023-01-28T08:07:16;99721.34;;;1.14;96.92
16431;BME280;8325;49.284;7.238;2023-01-28T08:11:28;99715.09;;;1.19;96.64
16431;BME280;8325;49.284;7.238;2023-01-28T08:15:40;99720.09;;;1.22;96.78
16431;BME280;8325;49.284;7.238;2023-01-28T08:19:52;99730.13;;;1.10;97.28
16431;BME280;8325;49.284;7.238;2023-01-28T08:24:04;99734.56;;;1.08;96.32
16431;BME280;8325;49.284;7.238;2023-01-28T08:28:16;99735.09;;;1.13;96.45
16431;BME280;8325;49.284;7.238;2023-01-28T08:32:28;99744.81;;;1.24;96.37
16431;BME280;8325;49.284;7.238;2023-01-28T08:36:40;99741.41;;;1.24;95.68
16431;BME280;8325;49.284;7.238;2023-01-28T08:40:55;99747.47;;;1.23;96.37
16431;BME280;8325;49.284;7.238;2023-01-28T08:45:07;99745.47;;;1.28;95.19
16431;BME280;8325;49.284;7.238;2023-01-28T08:49:18;99745.31;;;1.31;94.74
16431;BME280;8325;49.284;7.238;2023-01-28T08:53:30;99744.00;;;1.24;95.18
16431;BME280;8325;49.284;7.238;2023-01-28T08:57:42;99733.34;;;1.30;94.64
16431;BME280;8325;49.284;7.238;2023-01-28T09:01:53;99738.16;;;1.36;94.18
16431;BME280;8325;49.284;7.238;2023-01-28T09:06:05;99741.16;;;1.28;94.71
16431;BME280;8325;49.284;7.238;2023-01-28T09:10:17;99736.81;;;1.29;94.90
16431;BME280;8325;49.284;7.238;2023-01-28T09:14:30;99736.47;;;1.35;94.78
16431;BME280;8325;49.284;7.238;2023-01-28T09:18:42;99748.13;;;1.42;93.57
16431;BME280;8325;49.284;7.238;2023-01-28T09:22:53;99755.66;;;1.45;93.95
16431;BME280;8325;49.284;7.238;2023-01-28T09:27:05;99761.41;;;1.34;93.38
16431;BME280;8325;49.284;7.238;2023-01-28T09:31:17;99760.72;;;1.47;94.29
16431;BME280;8325;49.284;7.238;2023-01-28T09:35:29;99772.91;;;1.59;95.36
16431;BME280;8325;49.284;7.238;2023-01-28T09:39:40;99772.53;;;1.65;94.13
16431;BME280;8325;49.284;7.238;2023-01-28T09:48:19;99766.34;;;1.83;92.52
16431;BME280;8325;49.284;7.238;2023-01-28T09:52:38;99774.72;;;1.87;91.97
16431;BME280;8325;49.284;7.238;2023-01-28T09:56:59;99767.56;;;1.92;92.50
16431;BME280;8325;49.284;7.238;2023-01-28T10:10:15;99784.13;;;2.02;91.46
16431;BME280;8325;49.284;7.238;2023-01-28T10:18:51;99789.13;;;2.20;92.70
16431;BME280;8325;49.284;7.238;2023-01-28T10:23:05;99795.88;;;2.22;90.67
16431;BME280;8325;49.284;7.238;2023-01-28T10:27:22;99796.91;;;2.34;92.10
16431;BME280;8325;49.284;7.238;2023-01-28T10:31:36;99796.50;;;2.26;89.47
16431;BME280;8325;49.284;7.238;2023-01-28T10:35:50;99792.25;;;2.11;88.25
16431;BME280;8325;49.284;7.238;2023-01-28T10:40:02;99792.72;;;2.17;89.65
16431;BME280;8325;49.284;7.238;2023-01-28T10:44:28;99791.16;;;2.00;89.33
16431;BME280;8325;49.284;7.238;2023-01-28T10:48:45;99799.44;;;2.20;88.30
16431;BME280;8325;49.284;7.238;2023-01-28T10:53:00;99792.44;;;2.07;90.59
16431;BME280;8325;49.284;7.238;2023-01-28T10:57:15;99811.16;;;2.25;88.28
16431;BME280;8325;49.284;7.238;2023-01-28T11:01:45;99808.19;;;2.17;89.93
16431;BME280;8325;49.284;7.238;2023-01-28T11:05:58;99801.75;;;2.24;88.96
16431;BME280;8325;49.284;7.238;2023-01-28T11:10:31;99820.47;;;2.28;89.25
16431;BME280;8325;49.284;7.238;2023-01-28T11:15:00;99798.00;;;2.59;88.03
16431;BME280;8325;49.284;7.238;2023-01-28T11:19:12;99798.84;;;2.59;87.16
16431;BME280;8325;49.284;7.238;2023-01-28T11:23:26;99798.66;;;2.62;88.97
16431;BME280;8325;49.284;7.238;2023-01-28T11:27:38;99796.41;;;2.70;85.94
16431;BME280;8325;49.284;7.238;2023-01-28T11:31:50;99805.00;;;2.57;86.49
16431;BME280;8325;49.284;7.238;2023-01-28T11:36:12;99791.88;;;2.74;86.44
16431;BME280;8325;49.284;7.238;2023-01-28T11:40:25;99789.16;;;2.63;86.22
16431;BME280;8325;49.284;7.238;2023-01-28T11:44:38;99792.19;;;2.55;86.15
16431;BME280;8325;49.284;7.238;2023-01-28T11:48:59;99797.41;;;2.68;86.75
16431;BME280;8325;49.284;7.238;2023-01-28T11:58:05;99782.97;;;2.51;85.35
16431;BME280;8325;49.284;7.238;2023-01-28T12:20:15;99774.13;;;2.55;84.83
16431;BME280;8325;49.284;7.238;2023-01-28T12:24:48;99762.16;;;2.68;84.22
16431;BME280;8325;49.284;7.238;2023-01-28T12:33:36;99761.63;;;2.35;83.11
16431;BME280;8325;49.284;7.238;2023-01-28T12:38:11;99765.75;;;2.23;84.40
16431;BME280;8325;49.284;7.238;2023-01-28T12:42:35;99757.81;;;2.12;83.72
16431;BME280;8325;49.284;7.238;2023-01-28T12:46:51;99758.38;;;2.02;84.41
16431;BME280;8325;49.284;7.238;2023-01-28T12:51:15;99757.81;;;2.12;84.91
16431;BME280;8325;49.284;7.238;2023-01-28T12:55:44;99756.53;;;2.04;85.94
16431;BME280;8325;49.284;7.238;2023-01-28T13:04:36;99756.34;;;2.07;85.58
16431;BME280;8325;49.284;7.238;2023-01-28T13:08:55;99752.41;;;2.16;84.94
16431;BME280;8325;49.284;7.238;2023-01-28T13:13:17;99756.75;;;2.16;85.29
16431;BME280;8325;49.284;7.238;2023-01-28T13:17:31;99766.03;;;2.04;85.85
16431;BME280;8325;49.284;7.238;2023-01-28T13:21:43;99764.16;;;2.06;84.96
16431;BME280;8325;49.284;7.238;2023-01-28T13:30:32;99772.19;;;2.01;85.25
16431;BME280;8325;49.284;7.238;2023-01-28T13:34:57;99778.81;;;2.05;82.88
16431;BME280;8325;49.284;7.238;2023-01-28T13:39:18;99783.03;;;1.92;81.83
16431;BME280;8325;49.284;7.238;2023-01-28T13:47:51;99796.22;;;1.72;82.52
16431;BME280;8325;49.284;7.238;2023-01-28T13:56:26;99813.28;;;1.89;82.36
16431;BME280;8325;49.284;7.238;2023-01-28T14:14:19;99827.59;;;1.48;82.65
16431;BME280;8325;49.284;7.238;2023-01-28T14:18:37;99825.06;;;1.63;83.13
16431;BME280;8325;49.284;7.238;2023-01-28T14:22:50;99834.47;;;1.64;83.21
16431;BME280;8325;49.284;7.238;2023-01-28T14:27:06;99827.47;;;1.66;82.24
16431;BME280;8325;49.284;7.238;2023-01-28T14:31:31;99839.34;;;1.68;82.40
16431;BME280;8325;49.284;7.238;2023-01-28T14:35:46;99837.94;;;1.63;82.57
16431;BME280;8325;49.284;7.238;2023-01-28T14:40:01;99842.50;;;1.73;81.73
16431;BME280;8325;49.284;7.238;2023-01-28T14:44:32;99852.09;;;1.55;82.04
16431;BME280;8325;49.284;7.238;2023-01-28T14:49:10;99847.28;;;1.49;82.23
16431;BME280;8325;49.284;7.238;2023-01-28T14:57:56;99859.00;;;1.39;82.09
16431;BME280;8325;49.284;7.238;2023-01-28T15:02:26;99853.44;;;1.31;82.32
16431;BME280;8325;49.284;7.238;2023-01-28T15:06:38;99859.16;;;1.36;81.48
16431;BME280;8325;49.284;7.238;2023-01-28T15:10:51;99862.06;;;1.30;82.01
16431;BME280;8325;49.284;7.238;2023-01-28T15:19:39;99848.78;;;1.22;83.06
16431;BME280;8325;49.284;7.238;2023-01-28T15:23:53;99841.81;;;1.24;83.11
16431;BME280;8325;49.284;7.238;2023-01-28T15:28:11;99839.97;;;1.26;83.25
16431;BME280;8325;49.284;7.238;2023-01-28T15:32:28;99836.06;;;1.19;83.37
16431;BME280;8325;49.284;7.238;2023-01-28T15:36:41;99850.25;;;1.26;82.63
16431;BME280;8325;49.284;7.238;2023-01-28T15:40:55;99848.44;;;1.28;82.52
16431;BME280;8325;49.284;7.238;2023-01-28T15:45:15;99847.84;;;1.23;83.36
16431;BME280;8325;49.284;7.238;2023-01-28T15:49:41;99855.50;;;1.08;82.50
16431;BME280;8325;49.284;7.238;2023-01-28T15:54:05;99858.72;;;0.96;82.81
16431;BME280;8325;49.284;7.238;2023-01-28T15:58:20;99864.38;;;1.03;82.65
16431;BME280;8325;49.284;7.238;2023-01-28T16:02:44;99863.72;;;0.99;82.49
16431;BME280;8325;49.284;7.238;2023-01-28T16:06:57;99860.88;;;1.04;83.06
16431;BME280;8325;49.284;7.238;2023-01-28T16:11:09;99865.97;;;1.05;82.05
16431;BME280;8325;49.284;7.238;2023-01-28T16:15:21;99869.41;;;1.04;82.57
16431;BME280;8325;49.284;7.238;2023-01-28T16:19:39;99867.16;;;0.98;82.85
16431;BME280;8325;49.284;7.238;2023-01-28T16:24:03;99859.63;;;0.95;83.08
16431;BME280;8325;49.284;7.238;2023-01-28T16:28:18;99867.50;;;0.92;83.12
16431;BME280;8325;49.284;7.238;2023-01-28T16:32:37;99884.78;;;0.90;83.48
16431;BME280;8325;49.284;7.238;2023-01-28T16:36:49;99883.41;;;0.83;84.05
16431;BME280;8325;49.284;7.238;2023-01-28T16:41:01;99880.94;;;0.81;83.90
16431;BME280;8325;49.284;7.238;2023-01-28T16:45:40;99889.91;;;0.90;84.89
16431;BME280;8325;49.284;7.238;2023-01-28T16:49:51;99882.25;;;0.88;83.04
16431;BME280;8325;49.284;7.238;2023-01-28T16:54:03;99899.88;;;0.96;84.62
16431;BME280;8325;49.284;7.238;2023-01-28T16:58:18;99905.19;;;0.93;84.31
16431;BME280;8325;49.284;7.238;2023-01-28T17:02:30;99891.41;;;0.94;84.48
16431;BME280;8325;49.284;7.238;2023-01-28T17:06:42;99902.63;;;0.93;83.95
16431;BME280;8325;49.284;7.238;2023-01-28T17:10:55;99904.16;;;0.80;83.54
16431;BME280;8325;49.284;7.238;2023-01-28T17:15:07;99913.81;;;0.92;84.76
16431;BME280;8325;49.284;7.238;2023-01-28T17:19:19;99901.00;;;0.75;85.05
16431;BME280;8325;49.284;7.238;2023-01-28T17:23:30;99918.84;;;0.78;85.25
16431;BME280;8325;49.284;7.238;2023-01-28T17:27:42;99918.59;;;0.82;85.11
16431;BME280;8325;49.284;7.238;2023-01-28T17:31:53;99916.84;;;0.83;83.75
16431;BME280;8325;49.284;7.238;2023-01-28T17:36:05;99917.00;;;0.80;83.08
16431;BME280;8325;49.284;7.238;2023-01-28T17:40:17;99922.31;;;0.77;83.66
16431;BME280;8325;49.284;7.238;2023-01-28T17:44:29;99935.47;;;0.71;84.24
16431;BME280;8325;49.284;7.238;2023-01-28T17:48:41;99937.00;;;0.75;84.30
16431;BME280;8325;49.284;7.238;2023-01-28T17:52:55;99934.50;;;0.73;83.83
16431;BME280;8325;49.284;7.238;2023-01-28T17:57:07;99939.13;;;0.66;83.98
16431;BME280;8325;49.284;7.238;2023-01-28T18:01:19;99946.84;;;0.49;84.22
16431;BME280;8325;49.284;7.238;2023-01-28T18:05:31;99941.53;;;0.52;85.05
16431;BME280;8325;49.284;7.238;2023-01-28T18:09:43;99934.28;;;0.60;85.10
16431;BME280;8325;49.284;7.238;2023-01-28T18:13:57;99930.66;;;0.64;83.92
16431;BME280;8325;49.284;7.238;2023-01-28T18:18:09;99935.13;;;0.61;84.38
16431;BME280;8325;49.284;7.238;2023-01-28T18:22:21;99936.03;;;0.42;84.98
16431;BME280;8325;49.284;7.238;2023-01-28T18:26:32;99949.50;;;0.48;84.41
16431;BME280;8325;49.284;7.238;2023-01-28T18:30:44;99959.25;;;0.41;85.25
16431;BME280;8325;49.284;7.238;2023-01-28T18:34:55;99956.97;;;0.52;84.22
16431;BME280;8325;49.284;7.238;2023-01-28T18:39:12;99962.88;;;0.54;84.21
16431;BME280;8325;49.284;7.238;2023-01-28T18:43:23;99964.09;;;0.47;83.90
16431;BME280;8325;49.284;7.238;2023-01-28T18:47:35;99967.69;;;0.43;84.22
16431;BME280;8325;49.284;7.238;2023-01-28T18:51:47;99971.72;;;0.49;84.45
16431;BME280;8325;49.284;7.238;2023-01-28T18:56:05;99982.75;;;0.33;84.91
16431;BME280;8325;49.284;7.238;2023-01-28T19:00:17;99983.72;;;0.31;84.99
16431;BME280;8325;49.284;7.238;2023-01-28T19:04:29;99976.19;;;0.45;83.96
16431;BME280;8325;49.284;7.238;2023-01-28T19:08:40;99996.91;;;0.42;84.23
16431;BME280;8325;49.284;7.238;2023-01-28T19:12:52;100003.41;;;0.49;84.73
16431;BME280;8325;49.284;7.238;2023-01-28T19:17:04;99996.75;;;0.45;84.51
16431;BME280;8325;49.284;7.238;2023-01-28T19:21:15;99999.00;;;0.34;83.08
16431;BME280;8325;49.284;7.238;2023-01-28T19:25:27;100004.00;;;0.37;83.07
16431;BME280;8325;49.284;7.238;2023-01-28T19:29:38;100008.44;;;0.33;82.74
16431;BME280;8325;49.284;7.238;2023-01-28T19:33:58;100002.19;;;0.39;81.10
16431;BME280;8325;49.284;7.238;2023-01-28T19:38:10;100008.78;;;0.44;78.84
16431;BME280;8325;49.284;7.238;2023-01-28T19:42:21;100021.84;;;0.40;79.10
16431;BME280;8325;49.284;7.238;2023-01-28T19:46:34;100026.81;;;0.26;79.19
16431;BME280;8325;49.284;7.238;2023-01-28T19:50:46;100023.47;;;0.23;79.12
16431;BME280;8325;49.284;7.238;2023-01-28T19:54:57;100024.88;;;0.12;78.09
16431;BME280;8325;49.284;7.238;2023-01-28T19:59:09;100024.06;;;0.11;78.19
16431;BME280;8325;49.284;7.238;2023-01-28T20:03:20;100035.53;;;0.04;77.82
16431;BME280;8325;49.284;7.238;2023-01-28T20:07:32;100042.19;;;0.08;77.45
16431;BME280;8325;49.284;7.238;2023-01-28T20:11:43;100041.88;;;-0.03;78.43
16431;BME280;8325;49.284;7.238;2023-01-28T20:15:55;100032.00;;;-0.12;76.61
16431;BME280;8325;49.284;7.238;2023-01-28T20:20:07;100034.50;;;-0.11;76.33
16431;BME280;8325;49.284;7.238;2023-01-28T20:24:19;100042.28;;;-0.12;76.43
16431;BME280;8325;49.284;7.238;2023-01-28T20:28:30;100028.25;;;-0.05;75.65
16431;BME280;8325;49.284;7.238;2023-01-28T20:32:42;100025.69;;;-0.24;75.22
16431;BME280;8325;49.284;7.238;2023-01-28T20:36:53;100020.69;;;-0.08;76.46
16431;BME280;8325;49.284;7.238;2023-01-28T20:41:10;100024.84;;;-0.06;75.74
16431;BME280;8325;49.284;7.238;2023-01-28T20:45:23;100038.81;;;-0.11;76.19
16431;BME280;8325;49.284;7.238;2023-01-28T20:49:34;100043.13;;;-0.12;75.30
16431;BME280;8325;49.284;7.238;2023-01-28T20:53:46;100051.50;;;-0.08;75.27
16431;BME280;8325;49.284;7.238;2023-01-28T20:57:59;100056.28;;;-0.01;74.74
16431;BME280;8325;49.284;7.238;2023-01-28T21:02:11;100056.09;;;-0.15;74.39
16431;BME280;8325;49.284;7.238;2023-01-28T21:06:23;100052.56;;;-0.12;74.57
16431;BME280;8325;49.284;7.238;2023-01-28T21:10:35;100059.63;;;-0.17;75.11
16431;BME280;8325;49.284;7.238;2023-01-28T21:14:47;100061.91;;;-0.11;74.51
16431;BME280;8325;49.284;7.238;2023-01-28T21:18:59;100073.53;;;-0.21;74.86
16431;BME280;8325;49.284;7.238;2023-01-28T21:23:10;100060.88;;;-0.26;74.14
16431;BME280;8325;49.284;7.238;2023-01-28T21:27:25;100061.13;;;-0.32;74.44
16431;BME280;8325;49.284;7.238;2023-01-28T21:31:36;100061.69;;;-0.26;74.37
16431;BME280;8325;49.284;7.238;2023-01-28T21:35:47;100064.13;;;-0.22;74.77
16431;BME280;8325;49.284;7.238;2023-01-28T21:39:59;100072.47;;;-0.17;74.38
16431;BME280;8325;49.284;7.238;2023-01-28T21:44:11;100061.16;;;-0.13;74.47
16431;BME280;8325;49.284;7.238;2023-01-28T21:48:22;100049.63;;;-0.24;73.94
16431;BME280;8325;49.284;7.238;2023-01-28T21:52:34;100053.66;;;-0.18;74.68
16431;BME280;8325;49.284;7.238;2023-01-28T21:56:47;100063.38;;;-0.25;75.08
16431;BME280;8325;49.284;7.238;2023-01-28T22:01:06;100056.44;;;-0.22;73.89
16431;BME280;8325;49.284;7.238;2023-01-28T22:05:18;100047.25;;;-0.28;73.72
16431;BME280;8325;49.284;7.238;2023-01-28T22:09:30;100052.38;;;-0.28;73.98
16431;BME280;8325;49.284;7.238;2023-01-28T22:13:43;100047.47;;;-0.33;73.77
16431;BME280;8325;49.284;7.238;2023-01-28T22:17:55;100039.69;;;-0.31;73.24
16431;BME280;8325;49.284;7.238;2023-01-28T22:22:06;100045.03;;;-0.36;73.22
16431;BME280;8325;49.284;7.238;2023-01-28T22:26:19;100041.97;;;-0.25;73.02
